Terminal Aerodrome Forecast
Issued by NWS

Home | Current Version | Previous Version | Text Only | Print | Product List | Glossary On
Versions: 1 2 3 4 5 6 7 8 9 10 11 12 13 14 15
000
FTUS43 KAPX 250607 AAA
TAFPLN
TAF AMD
KPLN 250607Z 2506/2606 00000KT 1/4SM FG VV002
      TEMPO 2512/2514 1 1/2SM BR BKN008
     FM251400 06005KT P6SM SCT040
     FM251800 08008KT P6SM SCT060 SCT250
     FM260100 10004KT P6SM BKN060=

USA.gov is the U.S. government's official web portal to all federal, state and local government web resources and services.